This is the latest recevied weather packets stored in our database for station/object KD4PMP. If no packets are shown the sender has not sent any weather packets the latest 10 day(s).
| Time | Temp. | Humidity | Pressure | Rain* | Wind** | Luminosity | Snow |
|---|---|---|---|---|---|---|---|
| 1777689003 | 12.22° C | 59% | 1016.5 hPa | 0 mm | - | - | - |
| 1777688403 | 12.22° C | 58% | 1016.2 hPa | 0 mm | - | - | - |
| 1777673996 | 17.78° C | 41% | 1013 hPa | 0 mm | - | - | - |
| 1777670994 | 17.78° C | 40% | 1013.1 hPa | 0 mm | - | - | - |
| 1777670394 | 17.78° C | 44% | 1013.5 hPa | 0 mm | - | - | - |
| 1777669823 | 17.78° C | 45% | 1013.6 hPa | 0 mm | - | - | - |
| 1777669227 | 17.78° C | 45% | 1013.8 hPa | 0 mm | - | - | - |
| 1777667423 | 17.78° C | 50% | 1013.9 hPa | 0 mm | - | - | - |
| 1777666222 | 18.89° C | 52% | 1014.2 hPa | 0 mm | - | - | - |
| 1777663821 | 18.33° C | 50% | 1015 hPa | 0 mm | - | - | - |
| 1777660820 | 18.89° C | 48% | 1014.9 hPa | 0 mm | - | - | - |
| 1777660219 | 18.33° C | 52% | 1015 hPa | 0 mm | - | - | - |
| 1777659018 | 18.33° C | 55% | 1014.8 hPa | 0 mm | - | - | - |
| 1777656017 | 17.78° C | 63% | 1015.1 hPa | 0 mm | - | - | - |
| 1777655417 | 17.78° C | 62% | 1015.1 hPa | 0 mm | - | - | - |
| 1777653616 | 18.33° C | 59% | 1015.1 hPa | 0 mm | - | - | - |
| 1777651215 | 18.33° C | 55% | 1015.3 hPa | 0 mm | - | - | - |
| 1777650614 | 17.78° C | 56% | 1015.4 hPa | 0 mm | - | - | - |
| 1777650014 | 17.78° C | 57% | 1015.3 hPa | 0 mm | - | - | - |
| 1777649413 | 17.78° C | 57% | 1015.3 hPa | 0 mm | - | - | - |
| 1777648813 | 17.22° C | 57% | 1015.4 hPa | 0 mm | - | - | - |
| 1777648213 | 17.22° C | 55% | 1015.3 hPa | 0 mm | - | - | - |
| 1777647013 | 16.67° C | 56% | 1015.2 hPa | 0 mm | - | - | - |
| 1777646412 | 16.67° C | 58% | 1015.1 hPa | 0 mm | - | - | - |
| 1777645812 | 16.11° C | 61% | 1015.1 hPa | 0 mm | - | - | - |
* Rain latest hour (hover to see other rain measurements)
** Current wind speed in m/s (hover to see current wind gust speed)